Time;durP1;ratioP1;P1;durP2;ratioP2;P2;SDS_P1;SDS_P2;PMS_P1;PMS_P2;Temp;Humidity;BMP_temperature;BMP_pressure;BME280_temperature;BME280_humidity;BME280_pressure;Samples;Min_cycle;Max_cycle;Signal;HPM_P1;HPM_P2
2024/01/05 00:01:33;;;;;;;4.00;2.90;;;;;;;9.49;72.72;99299.84;5111086;28;20132;-26
2024/01/05 00:04:00;;;;;;;3.70;2.83;;;;;;;9.87;71.35;99312.44;5111504;28;20399;-26
2024/01/05 00:06:26;;;;;;;4.07;2.70;;;;;;;10.09;69.37;99301.50;5111488;28;20039;-26
2024/01/05 00:08:51;;;;;;;3.70;2.60;;;;;;;9.77;70.57;99309.41;5110333;28;20028;-36
2024/01/05 00:11:19;;;;;;;4.13;2.88;;;;;;;9.74;70.13;99317.78;5110959;28;20055;-40
2024/01/05 00:13:46;;;;;;;3.10;2.50;;;;;;;9.93;70.10;99324.06;5110963;28;20039;-39
2024/01/05 00:16:18;;;;;;;4.35;3.03;;;;;;;9.76;70.57;99334.34;5111535;28;20030;-38
2024/01/05 00:18:43;;;;;;;4.30;3.00;;;;;;;10.24;69.25;99327.84;5111173;28;20400;-39
2024/01/05 00:21:17;;;;;;;4.90;3.00;;;;;;;9.88;69.69;99331.84;5110545;28;20099;-40
2024/01/05 00:23:42;;;;;;;4.85;3.10;;;;;;;9.44;70.10;99343.97;5110897;28;20027;-38
2024/01/05 00:26:08;;;;;;;5.40;3.17;;;;;;;9.61;71.69;99333.75;5110861;28;20471;-40
2024/01/05 00:28:33;;;;;;;4.57;2.95;;;;;;;9.88;70.02;99343.31;5110292;28;20363;-38
2024/01/05 00:30:59;;;;;;;4.45;2.90;;;;;;;10.23;68.36;99334.19;5110605;28;20072;-38
2024/01/05 00:33:24;;;;;;;3.72;2.78;;;;;;;9.75;70.04;99336.19;5110757;28;20026;-38
2024/01/05 00:35:49;;;;;;;4.28;3.10;;;;;;;9.54;70.55;99344.41;5110768;28;20099;-38
2024/01/05 00:38:15;;;;;;;4.25;2.72;;;;;;;9.70;69.84;99338.63;5110675;28;20024;-39
2024/01/05 00:40:40;;;;;;;3.55;2.70;;;;;;;9.81;69.07;99342.50;5110287;28;20028;-38
2024/01/05 00:43:05;;;;;;;5.03;2.80;;;;;;;9.70;70.01;99335.97;5113843;28;20041;-39
2024/01/05 00:45:31;;;;;;;3.53;2.50;;;;;;;9.41;70.48;99342.56;5114567;28;20046;-39
2024/01/05 00:47:56;;;;;;;4.75;2.50;;;;;;;9.47;70.39;99332.97;5095921;28;20030;-39
2024/01/05 00:50:21;;;;;;;4.50;2.47;;;;;;;9.37;70.65;99336.03;5093808;28;20483;-39
2024/01/05 00:52:47;;;;;;;3.70;2.42;;;;;;;9.44;70.31;99339.47;5092437;28;20024;-38
2024/01/05 00:55:12;;;;;;;6.47;2.50;;;;;;;9.58;70.13;99345.63;5092576;28;20051;-39
2024/01/05 00:57:38;;;;;;;3.72;2.35;;;;;;;9.61;69.61;99341.72;5092447;28;20054;-39
2024/01/05 01:00:04;;;;;;;3.63;2.50;;;;;;;9.72;68.03;99325.94;5092404;28;20035;-39
2024/01/05 01:02:29;;;;;;;2.83;2.30;;;;;;;9.80;68.03;99338.19;5092466;28;20490;-40
2024/01/05 01:04:54;;;;;;;4.07;2.33;;;;;;;9.85;68.48;99340.25;5092821;28;20024;-39
2024/01/05 01:07:20;;;;;;;3.88;2.60;;;;;;;9.54;69.29;99333.78;5093916;28;20459;-39
2024/01/05 01:09:45;;;;;;;3.15;2.38;;;;;;;9.61;68.02;99323.94;5094332;28;20380;-24
2024/01/05 01:12:10;;;;;;;3.50;2.58;;;;;;;9.36;69.98;99327.22;5093617;28;20031;-26
2024/01/05 01:14:36;;;;;;;3.17;2.30;;;;;;;9.39;68.80;99312.75;5093809;28;20142;-24
2024/01/05 01:17:01;;;;;;;3.03;2.15;;;;;;;9.51;68.88;99327.00;5094030;28;20104;-25
2024/01/05 01:19:26;;;;;;;3.33;2.50;;;;;;;9.38;69.05;99338.47;5094040;28;20372;-24
2024/01/05 01:21:52;;;;;;;3.92;2.38;;;;;;;9.55;68.56;99346.03;5109740;28;20077;-39
2024/01/05 01:24:18;;;;;;;3.67;2.25;;;;;;;9.53;68.39;99351.53;5113927;28;20098;-38
2024/01/05 01:26:43;;;;;;;3.13;2.30;;;;;;;9.50;68.08;99345.81;5113798;28;20095;-37
2024/01/05 01:29:08;;;;;;;3.15;2.30;;;;;;;9.61;67.52;99357.66;5113632;28;20407;-37
2024/01/05 01:31:34;;;;;;;2.90;2.20;;;;;;;9.54;68.10;99349.72;5113814;28;20102;-39
2024/01/05 01:33:59;;;;;;;3.47;2.42;;;;;;;9.47;67.77;99348.91;5113780;28;20404;-36
2024/01/05 01:36:25;;;;;;;4.00;2.42;;;;;;;9.42;67.98;99351.34;5113234;28;20093;-39
2024/01/05 01:38:51;;;;;;;2.67;2.20;;;;;;;9.52;67.12;99351.72;5113457;28;20027;-38
2024/01/05 01:41:16;;;;;;;3.20;2.30;;;;;;;9.41;67.33;99360.34;5113647;28;20016;-38
2024/01/05 01:43:46;;;;;;;3.13;2.00;;;;;;;9.47;67.59;99362.19;5113430;28;20054;-39
2024/01/05 01:46:11;;;;;;;4.43;2.60;;;;;;;9.70;66.53;99351.91;5113029;27;20399;-41
2024/01/05 01:48:37;;;;;;;2.88;2.08;;;;;;;9.62;66.08;99349.50;5113069;28;20023;-40
2024/01/05 01:51:03;;;;;;;3.17;2.00;;;;;;;9.51;66.68;99355.44;5113616;28;20019;-40
2024/01/05 01:53:28;;;;;;;3.33;2.15;;;;;;;9.37;66.87;99360.75;5113099;28;20439;-37
2024/01/05 01:55:54;;;;;;;2.80;2.15;;;;;;;9.27;67.14;99352.38;5113311;28;20024;-38
2024/01/05 01:58:21;;;;;;;3.67;1.90;;;;;;;8.91;67.91;99339.47;5113227;28;20073;-38
2024/01/05 02:00:47;;;;;;;2.72;1.90;;;;;;;9.03;67.37;99339.72;5112911;28;20015;-36
2024/01/05 02:03:13;;;;;;;3.03;2.05;;;;;;;8.92;67.59;99341.94;5113171;28;20478;-38
2024/01/05 02:05:40;;;;;;;3.60;1.80;;;;;;;8.90;67.72;99343.97;5113093;28;20024;-38
2024/01/05 02:08:07;;;;;;;2.72;1.92;;;;;;;8.74;68.44;99349.69;5112907;28;20043;-25
2024/01/05 02:10:32;;;;;;;2.97;1.85;;;;;;;8.91;68.20;99345.63;5113273;28;20475;-26
2024/01/05 02:12:58;;;;;;;4.22;1.85;;;;;;;8.86;67.58;99347.25;5113627;28;20035;-25
2024/01/05 02:15:23;;;;;;;1.92;1.50;;;;;;;8.89;67.24;99352.97;5113286;28;20493;-25
2024/01/05 02:17:48;;;;;;;3.13;2.03;;;;;;;9.06;66.70;99347.25;5112769;28;20081;-25
2024/01/05 02:20:14;;;;;;;2.90;1.95;;;;;;;9.18;66.59;99348.28;5112682;28;20074;-26
2024/01/05 02:22:44;;;;;;;2.22;1.70;;;;;;;8.96;66.59;99347.66;5112533;27;20027;-26
2024/01/05 02:25:10;;;;;;;2.78;1.90;;;;;;;9.10;66.52;99344.00;5112892;28;20027;-26
2024/01/05 02:27:36;;;;;;;2.08;1.65;;;;;;;9.27;65.60;99349.72;5113062;28;20055;-26
2024/01/05 02:30:02;;;;;;;2.70;1.67;;;;;;;9.02;66.30;99354.00;5113315;28;20095;-26
2024/01/05 02:32:27;;;;;;;2.33;1.70;;;;;;;8.95;66.66;99349.50;5113022;28;20026;-26
2024/01/05 02:34:52;;;;;;;2.67;1.58;;;;;;;9.04;65.90;99349.28;5113087;28;20024;-26
2024/01/05 02:37:18;;;;;;;2.03;1.60;;;;;;;9.18;65.50;99348.28;5113112;28;20523;-26
2024/01/05 02:39:43;;;;;;;2.33;1.70;;;;;;;9.42;65.10;99356.66;5112902;28;20449;-26
2024/01/05 02:42:08;;;;;;;2.47;1.70;;;;;;;9.31;65.47;99361.56;5119430;27;20027;-26
2024/01/05 02:44:34;;;;;;;2.45;1.63;;;;;;;9.38;64.62;99365.03;5133055;27;20027;-25
2024/01/05 02:46:59;;;;;;;2.25;1.52;;;;;;;9.40;64.46;99354.19;5133407;27;20023;-26
2024/01/05 02:49:24;;;;;;;3.33;1.45;;;;;;;9.55;63.90;99362.75;5133307;27;20446;-26
2024/01/05 02:51:50;;;;;;;3.40;1.70;;;;;;;9.67;63.32;99354.16;5133223;27;20015;-26
2024/01/05 02:54:15;;;;;;;2.35;1.35;;;;;;;9.81;63.38;99369.06;5121087;27;20027;-24
2024/01/05 02:56:40;;;;;;;2.67;1.25;;;;;;;9.85;62.78;99372.16;5112665;28;20046;-40
2024/01/05 02:59:06;;;;;;;1.92;1.23;;;;;;;10.12;62.44;99379.00;5112149;27;20055;-40
2024/01/05 03:01:31;;;;;;;2.38;1.50;;;;;;;10.21;61.51;99381.47;5112510;28;20114;-40
2024/01/05 03:04:03;;;;;;;1.50;1.30;;;;;;;10.56;61.02;99369.44;5111461;28;20427;-37
2024/01/05 03:06:28;;;;;;;2.75;1.25;;;;;;;10.26;60.89;99381.63;5110530;28;20027;-40
2024/01/05 03:08:54;;;;;;;2.33;1.50;;;;;;;10.57;59.89;99378.28;5112470;28;20020;-26
2024/01/05 03:11:19;;;;;;;1.90;1.50;;;;;;;10.40;60.25;99380.59;5111802;28;20023;-26
2024/01/05 03:13:44;;;;;;;3.50;1.30;;;;;;;10.43;59.50;99390.78;5112158;28;20023;-25
2024/01/05 03:16:10;;;;;;;3.25;1.50;;;;;;;10.33;59.95;99393.09;5112200;28;20099;-26
2024/01/05 03:18:35;;;;;;;1.70;1.33;;;;;;;10.41;59.59;99384.06;5111709;28;20023;-26
2024/01/05 03:21:01;;;;;;;2.50;1.35;;;;;;;10.31;59.30;99390.63;5111588;28;20057;-25
2024/01/05 03:23:26;;;;;;;2.53;1.60;;;;;;;10.37;59.34;99397.78;5110239;28;20036;-25
2024/01/05 03:25:52;;;;;;;1.65;1.30;;;;;;;10.11;59.97;99403.97;5112013;28;20023;-26
2024/01/05 03:28:17;;;;;;;1.38;1.27;;;;;;;10.07;59.74;99400.09;5111855;28;20079;-25
2024/01/05 03:30:43;;;;;;;2.40;1.38;;;;;;;10.38;58.15;99419.88;5112061;28;20103;-26
2024/01/05 03:33:09;;;;;;;2.22;1.40;;;;;;;9.93;59.32;99419.75;5112394;28;20114;-26
2024/01/05 03:35:36;;;;;;;3.03;1.33;;;;;;;9.83;60.00;99416.72;5111884;28;20084;-27
2024/01/05 03:38:01;;;;;;;3.00;1.40;;;;;;;9.74;60.25;99426.72;5111545;28;20035;-27
2024/01/05 03:40:27;;;;;;;2.45;1.20;;;;;;;9.74;59.59;99424.88;5111181;28;20023;-27
2024/01/05 03:42:52;;;;;;;2.20;1.60;;;;;;;9.42;60.24;99423.06;5111565;28;20024;-27
2024/01/05 03:45:18;;;;;;;2.67;1.45;;;;;;;9.79;59.68;99438.38;5111385;28;20039;-27
2024/01/05 03:47:43;;;;;;;2.38;1.45;;;;;;;9.80;58.92;99444.50;5111514;28;20364;-27
2024/01/05 03:50:09;;;;;;;2.50;1.50;;;;;;;9.64;59.55;99445.75;5111072;28;20051;-26
2024/01/05 03:52:35;;;;;;;2.85;1.40;;;;;;;9.74;59.49;99455.97;5110922;28;20483;-27
2024/01/05 03:55:01;;;;;;;3.42;1.45;;;;;;;9.70;59.07;99462.72;5111453;28;20024;-39
2024/01/05 03:57:27;;;;;;;2.10;1.58;;;;;;;9.87;58.64;99463.13;5112967;28;20055;-27
2024/01/05 03:59:53;;;;;;;1.55;1.30;;;;;;;9.74;58.97;99461.28;5113790;28;20047;-31
2024/01/05 04:02:18;;;;;;;2.72;1.67;;;;;;;9.70;59.17;99466.19;5112685;28;20024;-25
2024/01/05 04:04:43;;;;;;;2.08;1.50;;;;;;;9.87;59.00;99471.09;5111951;28;20034;-40
2024/01/05 04:07:09;;;;;;;2.40;1.08;;;;;;;9.73;59.46;99471.09;5110831;28;20068;-38
2024/01/05 04:09:34;;;;;;;2.38;1.70;;;;;;;9.77;58.50;99466.19;5109370;28;20027;-37
2024/01/05 04:12:00;;;;;;;3.40;1.67;;;;;;;9.77;59.40;99474.16;5110229;28;20486;-38
2024/01/05 04:14:25;;;;;;;2.22;1.63;;;;;;;9.79;59.35;99472.94;5111594;28;20048;-36
2024/01/05 04:16:51;;;;;;;2.17;1.60;;;;;;;9.75;59.80;99484.19;5114233;28;20110;-39
2024/01/05 04:19:16;;;;;;;3.05;1.70;;;;;;;9.44;60.69;99482.91;5114843;27;20081;-39
2024/01/05 04:21:42;;;;;;;2.03;1.50;;;;;;;9.48;60.65;99499.25;5114834;28;20473;-26
2024/01/05 04:24:08;;;;;;;2.60;1.58;;;;;;;9.21;61.50;99493.91;5115128;28;20027;-25
2024/01/05 04:26:34;;;;;;;2.35;1.75;;;;;;;9.28;61.87;99499.22;5114924;28;20032;-25
2024/01/05 04:29:00;;;;;;;2.58;1.70;;;;;;;9.05;62.84;99507.53;5115321;27;20031;-26
2024/01/05 04:31:25;;;;;;;2.28;1.77;;;;;;;8.91;62.75;99498.69;5115100;28;20034;-26
2024/01/05 04:33:51;;;;;;;2.90;1.95;;;;;;;8.89;63.21;99508.69;5115554;28;20087;-26
2024/01/05 04:36:17;;;;;;;3.42;2.00;;;;;;;8.92;62.82;99505.66;5114952;28;20567;-26
2024/01/05 04:38:43;;;;;;;2.88;1.95;;;;;;;8.98;62.78;99526.91;5114827;28;20039;-26
2024/01/05 04:41:09;;;;;;;3.95;2.13;;;;;;;8.89;62.95;99530.75;5114753;28;20020;-26
2024/01/05 04:43:34;;;;;;;3.00;2.03;;;;;;;8.77;63.38;99533.13;5114738;28;20028;-26
2024/01/05 04:46:00;;;;;;;2.65;1.95;;;;;;;8.68;63.59;99531.69;5114574;28;20106;-26
2024/01/05 04:48:25;;;;;;;3.03;2.03;;;;;;;8.71;63.80;99541.06;5112987;28;20110;-25
2024/01/05 04:50:51;;;;;;;3.17;1.92;;;;;;;8.83;62.99;99536.84;5114111;28;20076;-25
2024/01/05 04:53:17;;;;;;;3.72;2.28;;;;;;;9.11;62.14;99550.03;5113990;28;20031;-25
2024/01/05 04:55:42;;;;;;;3.53;2.33;;;;;;;9.10;62.02;99560.84;5114000;28;20019;-25
2024/01/05 04:58:08;;;;;;;4.13;2.38;;;;;;;8.94;62.75;99560.16;5114279;28;20020;-25
2024/01/05 05:00:33;;;;;;;2.67;1.95;;;;;;;8.77;63.23;99567.63;5114593;28;20103;-26
2024/01/05 05:02:58;;;;;;;3.55;2.10;;;;;;;8.53;63.63;99560.13;5112272;28;20020;-26
2024/01/05 05:05:25;;;;;;;3.70;2.15;;;;;;;8.35;64.78;99568.56;5104006;28;20020;-27
2024/01/05 05:07:51;;;;;;;2.88;1.98;;;;;;;8.46;64.48;99569.91;5114312;28;20065;-25
2024/01/05 05:10:16;;;;;;;2.60;1.95;;;;;;;9.28;62.24;99563.78;5096135;28;20431;-27
2024/01/05 05:12:42;;;;;;;5.70;2.95;;;;;;;9.69;60.30;99559.38;5094063;28;20098;-25
2024/01/05 05:15:10;;;;;;;3.95;2.60;;;;;;;9.78;59.44;99571.44;5092764;28;20321;-27
2024/01/05 05:17:35;;;;;;;5.28;2.30;;;;;;;9.92;59.34;99572.31;5092809;28;20066;-26
2024/01/05 05:20:01;;;;;;;3.75;2.35;;;;;;;9.95;58.40;99571.88;5091400;28;20052;-25
2024/01/05 05:22:26;;;;;;;5.65;3.10;;;;;;;9.82;58.92;99577.19;5091182;28;20480;-26
2024/01/05 05:24:54;;;;;;;5.82;2.60;;;;;;;10.06;58.29;99586.41;5091541;28;20019;-27
2024/01/05 05:27:20;;;;;;;3.25;2.05;;;;;;;10.07;57.95;99582.72;5097724;28;20072;-26
2024/01/05 05:29:45;;;;;;;3.95;2.00;;;;;;;9.25;60.50;99581.94;5112794;28;20020;-25
2024/01/05 05:32:11;;;;;;;3.03;1.98;;;;;;;9.11;60.92;99581.88;5112669;28;20022;-26
2024/01/05 05:34:36;;;;;;;4.40;2.20;;;;;;;9.46;60.36;99586.28;5113186;28;20020;-27
2024/01/05 05:37:02;;;;;;;4.55;2.20;;;;;;;8.49;62.83;99586.25;5114442;28;20019;-27
2024/01/05 05:39:27;;;;;;;4.60;2.65;;;;;;;8.02;63.54;99575.25;5112701;28;20110;-27
2024/01/05 05:41:53;;;;;;;6.20;2.70;;;;;;;8.58;63.43;99598.31;5114768;28;20161;-26
2024/01/05 05:44:18;;;;;;;4.43;2.65;;;;;;;8.67;61.87;99596.34;5114411;28;20023;-26
2024/01/05 05:46:43;;;;;;;3.58;2.40;;;;;;;8.40;63.43;99595.34;5113723;28;20057;-27
2024/01/05 05:49:10;;;;;;;5.75;2.85;;;;;;;8.40;63.33;99598.78;5112852;28;20019;-26
2024/01/05 05:51:35;;;;;;;3.63;2.40;;;;;;;8.98;61.40;99606.53;5112567;28;20045;-25
2024/01/05 05:54:00;;;;;;;7.18;2.97;;;;;;;9.12;60.35;99618.06;5112561;28;20404;-27
2024/01/05 05:56:26;;;;;;;6.07;2.70;;;;;;;8.74;61.54;99620.28;5112173;28;20186;-27
2024/01/05 05:58:51;;;;;;;6.50;3.83;;;;;;;8.50;62.22;99627.66;5111859;28;20418;-28
2024/01/05 06:01:17;;;;;;;6.15;3.67;;;;;;;8.90;61.04;99635.88;5111852;27;20020;-25
2024/01/05 06:03:42;;;;;;;5.53;3.00;;;;;;;9.06;60.05;99644.56;5111935;28;20054;-25
2024/01/05 06:06:21;;;;;;;5.95;3.60;;;;;;;8.99;60.31;99634.72;5112202;28;20452;-27
2024/01/05 06:08:48;;;;;;;4.18;2.60;;;;;;;9.02;60.02;99645.97;5112148;28;20107;-27
2024/01/05 06:11:16;;;;;;;8.48;2.80;;;;;;;9.16;59.94;99653.81;5113014;28;20063;-27
2024/01/05 06:13:41;;;;;;;7.43;2.90;;;;;;;9.93;57.61;99641.19;5112888;28;20612;-26
2024/01/05 06:16:07;;;;;;;5.47;2.47;;;;;;;10.24;56.43;99652.28;5112426;28;20035;-26
2024/01/05 06:18:32;;;;;;;4.53;2.60;;;;;;;10.26;56.41;99656.41;5112215;28;20402;-27
2024/01/05 06:20:59;;;;;;;4.78;3.25;;;;;;;10.45;55.70;99665.44;5112203;27;20076;-27
2024/01/05 06:23:25;;;;;;;8.90;5.35;;;;;;;11.00;54.17;99664.34;5112174;28;20170;-27
2024/01/05 06:25:53;;;;;;;10.73;4.75;;;;;;;10.81;55.73;99668.69;5112183;28;20107;-26
2024/01/05 06:28:26;;;;;;;9.48;3.53;;;;;;;10.58;55.57;99672.59;5112764;28;20016;-27
2024/01/05 06:30:52;;;;;;;7.88;3.15;;;;;;;11.07;54.98;99676.63;5112272;28;20019;-27
2024/01/05 06:33:17;;;;;;;6.32;3.30;;;;;;;11.93;52.11;99688.84;5113156;28;20410;-27
2024/01/05 06:35:43;;;;;;;8.32;3.10;;;;;;;12.68;50.77;99692.66;5112726;28;20450;-27
2024/01/05 06:38:08;;;;;;;8.70;3.47;;;;;;;13.31;48.97;99691.66;5112536;28;20024;-27
2024/01/05 06:40:33;;;;;;;8.45;4.28;;;;;;;13.69;46.94;99690.59;5110684;28;20107;-27
2024/01/05 06:42:59;;;;;;;13.10;4.88;;;;;;;14.04;46.39;99693.41;5111533;28;20110;-28
2024/01/05 06:45:24;;;;;;;16.42;4.70;;;;;;;14.53;45.75;99695.19;5112387;28;20031;-37
2024/01/05 06:47:50;;;;;;;9.02;4.63;;;;;;;14.84;44.59;99704.78;5112045;28;20062;-42
2024/01/05 06:50:16;;;;;;;9.73;4.55;;;;;;;15.12;43.63;99700.59;5112249;28;20054;-41
2024/01/05 06:52:41;;;;;;;9.88;5.10;;;;;;;13.91;45.10;99708.84;5112490;28;20024;-40
2024/01/05 06:55:07;;;;;;;9.48;4.53;;;;;;;14.35;45.84;99712.94;5110824;28;20410;-39
2024/01/05 06:57:35;;;;;;;9.77;4.65;;;;;;;14.91;44.16;99708.19;5111773;28;20483;-41
2024/01/05 07:00:05;;;;;;;8.23;4.60;;;;;;;14.72;43.36;99714.69;5111028;28;20019;-39
2024/01/05 07:02:30;;;;;;;;;;;;;;;13.41;46.83;99717.88;5112455;28;20552;-41
2024/01/05 07:04:55;;;;;;;9.60;5.07;;;;;;;14.51;44.70;99722.19;5112074;28;19911;-40
2024/01/05 07:07:21;;;;;;;7.90;4.90;;;;;;;14.96;43.28;99718.19;5111029;28;20407;-39
2024/01/05 07:09:46;;;;;;;12.88;5.05;;;;;;;13.89;44.98;99717.09;5110444;28;20047;-40
2024/01/05 07:12:12;;;;;;;8.88;4.65;;;;;;;14.42;44.76;99712.84;5109988;28;20031;-39
2024/01/05 07:14:37;;;;;;;8.05;4.40;;;;;;;15.47;42.35;99707.78;5110714;28;20038;-40
2024/01/05 07:17:03;;;;;;;8.27;4.40;;;;;;;16.01;40.23;99706.47;5110352;28;20028;-40
2024/01/05 07:19:28;;;;;;;10.15;4.20;;;;;;;15.77;40.11;99707.63;5099879;27;20108;-40
2024/01/05 07:21:54;;;;;;;8.40;4.20;;;;;;;15.63;41.66;99715.91;5105617;28;20039;-40
2024/01/05 07:24:19;;;;;;;8.68;4.28;;;;;;;16.56;40.01;99713.06;5110844;28;20106;-39
2024/01/05 07:26:45;;;;;;;11.35;4.25;;;;;;;16.29;39.41;99720.91;5111071;28;20486;-40
2024/01/05 07:29:11;;;;;;;7.68;3.92;;;;;;;15.35;41.80;99723.88;5111437;28;20031;-39
2024/01/05 07:31:36;;;;;;;9.93;3.60;;;;;;;16.28;40.98;99724.66;5111198;28;20478;-41
2024/01/05 07:34:02;;;;;;;9.05;3.65;;;;;;;17.27;38.43;99719.78;5111371;28;20019;-41
2024/01/05 07:36:28;;;;;;;9.48;3.95;;;;;;;16.58;38.55;99737.81;5111400;28;20033;-40
2024/01/05 07:38:58;;;;;;;12.10;4.60;;;;;;;16.09;39.67;99734.78;5111302;28;20368;-41
2024/01/05 07:41:24;;;;;;;10.77;4.88;;;;;;;17.18;38.19;99740.91;5110468;28;20050;-39
2024/01/05 07:43:49;;;;;;;12.30;5.13;;;;;;;17.53;37.40;99729.00;5110027;28;20475;-40
2024/01/05 07:46:15;;;;;;;11.98;6.03;;;;;;;16.68;38.82;99729.09;5110219;28;20135;-41
2024/01/05 07:48:40;;;;;;;15.88;6.60;;;;;;;16.68;39.28;99736.34;5109840;28;20035;-41
2024/01/05 07:51:06;;;;;;;12.98;6.30;;;;;;;17.83;37.58;99728.56;5109547;28;20030;-41
2024/01/05 07:53:31;;;;;;;12.90;6.85;;;;;;;17.99;36.02;99734.97;5109712;28;20175;-40
2024/01/05 07:56:01;;;;;;;18.38;7.15;;;;;;;17.23;37.26;99730.25;5109877;28;20463;-40
2024/01/05 07:58:26;;;;;;;14.95;7.40;;;;;;;17.88;37.13;99733.25;5109840;28;20043;-39
2024/01/05 08:00:52;;;;;;;15.27;7.07;;;;;;;18.75;35.44;99734.88;5110162;28;20550;-40
2024/01/05 08:03:18;;;;;;;13.93;6.50;;;;;;;17.95;36.80;99737.38;5109998;28;20106;-38
2024/01/05 08:05:43;;;;;;;9.57;5.07;;;;;;;17.86;36.39;99735.34;5110226;28;20023;-40
2024/01/05 08:08:08;;;;;;;8.48;4.38;;;;;;;18.86;35.59;99743.88;5110801;28;20028;-40
2024/01/05 08:10:34;;;;;;;8.93;4.65;;;;;;;19.42;33.82;99748.84;5110115;28;20491;-39
2024/01/05 08:13:01;;;;;;;9.25;4.82;;;;;;;18.07;35.12;99752.56;5110814;28;20506;-39
2024/01/05 08:15:27;;;;;;;9.82;4.30;;;;;;;18.21;35.77;99748.41;5110676;28;20035;-39
2024/01/05 08:17:53;;;;;;;8.55;4.13;;;;;;;19.13;34.64;99754.63;5110459;28;20036;-41
2024/01/05 08:20:18;;;;;;;8.25;4.03;;;;;;;19.28;33.87;99761.16;5110433;28;20019;-42
2024/01/05 08:22:44;;;;;;;6.55;3.50;;;;;;;18.35;34.67;99751.50;5110042;28;20548;-39
2024/01/05 08:25:09;;;;;;;7.10;3.67;;;;;;;18.64;35.19;99753.91;5109544;28;20020;-41
2024/01/05 08:27:34;;;;;;;7.85;3.67;;;;;;;19.37;34.37;99762.31;5110265;28;20055;-40
2024/01/05 08:30:00;;;;;;;5.72;3.75;;;;;;;19.06;34.18;99764.81;5110007;28;20007;-41
2024/01/05 08:32:25;;;;;;;6.45;3.58;;;;;;;18.63;34.63;99765.78;5109738;28;20043;-41
2024/01/05 08:34:51;;;;;;;8.13;3.50;;;;;;;19.36;33.99;99755.25;5110044;28;20020;-40
2024/01/05 08:37:16;;;;;;;7.15;3.20;;;;;;;20.06;33.38;99761.25;5110195;28;20064;-37
2024/01/05 08:39:42;;;;;;;9.05;3.10;;;;;;;19.50;33.70;99764.53;5110665;28;20024;-40
2024/01/05 08:42:08;;;;;;;5.68;3.05;;;;;;;18.91;34.17;99768.19;5110435;28;20024;-40
2024/01/05 08:44:35;;;;;;;7.15;2.42;;;;;;;19.67;33.47;99752.75;5110965;28;20053;-37
2024/01/05 08:47:00;;;;;;;2.95;2.20;;;;;;;20.27;32.04;99762.13;5110493;28;20027;-39
2024/01/05 08:49:26;;;;;;;5.20;2.40;;;;;;;19.20;33.24;99754.38;5109900;28;20100;-41
2024/01/05 08:51:52;;;;;;;6.03;2.50;;;;;;;19.21;33.94;99757.88;5110520;28;20027;-39
2024/01/05 08:54:17;;;;;;;7.72;3.20;;;;;;;19.89;33.67;99763.38;5109615;28;20015;-40
2024/01/05 08:56:44;;;;;;;11.35;2.67;;;;;;;19.66;33.06;99761.91;5110868;28;20351;-39
2024/01/05 08:59:10;;;;;;;6.70;3.03;;;;;;;19.34;33.91;99758.25;5110527;28;20027;-38
2024/01/05 09:01:36;;;;;;;6.38;2.58;;;;;;;19.55;33.74;99752.94;5110996;28;20138;-37
2024/01/05 09:04:02;;;;;;;5.88;2.50;;;;;;;20.47;33.32;99755.97;5113653;28;20483;-39
2024/01/05 09:06:28;;;;;;;6.57;2.53;;;;;;;20.34;32.03;99748.38;5114864;28;20153;-36
2024/01/05 09:08:53;;;;;;;7.38;2.70;;;;;;;19.51;33.54;99744.59;5114553;28;20160;-39
2024/01/05 09:11:19;;;;;;;9.45;3.85;;;;;;;19.66;33.83;99748.41;5113178;28;20130;-37
2024/01/05 09:13:44;;;;;;;7.63;2.78;;;;;;;20.63;31.81;99742.47;5114061;28;20028;-39
2024/01/05 09:16:10;;;;;;;7.47;2.50;;;;;;;20.13;31.75;99750.22;5113915;28;20042;-39
2024/01/05 09:18:37;;;;;;;4.90;2.20;;;;;;;19.80;32.13;99743.34;5113484;28;20050;-39
2024/01/05 09:21:06;;;;;;;11.07;2.22;;;;;;;20.39;31.92;99739.44;5113162;28;20035;-40
2024/01/05 09:23:32;;;;;;;5.15;2.40;;;;;;;20.62;32.21;99744.38;5112746;28;20087;-37
2024/01/05 09:25:57;;;;;;;13.02;3.38;;;;;;;19.45;33.95;99747.50;5112574;27;20531;-39
2024/01/05 09:28:23;;;;;;;6.38;2.80;;;;;;;19.64;34.32;99740.56;5113161;28;20031;-41
2024/01/05 09:30:48;;;;;;;5.70;2.45;;;;;;;20.57;31.68;99747.03;5113960;28;20038;-37
2024/01/05 09:33:15;;;;;;;8.90;2.83;;;;;;;20.21;31.88;99740.78;5113322;28;20042;-41
2024/01/05 09:35:41;;;;;;;8.25;3.08;;;;;;;20.00;32.42;99739.94;5113224;28;20035;-39
2024/01/05 09:38:06;;;;;;;7.15;3.00;;;;;;;20.09;34.03;99736.44;5112924;28;20044;-39
2024/01/05 09:40:32;;;;;;;9.27;3.50;;;;;;;20.77;32.67;99729.22;5112485;28;20031;-39
2024/01/05 09:42:57;;;;;;;13.23;3.60;;;;;;;20.73;31.56;99728.16;5112957;28;20026;-39
2024/01/05 09:45:24;;;;;;;6.80;2.90;;;;;;;19.87;32.72;99720.44;5112886;28;20542;-39
2024/01/05 09:47:51;;;;;;;7.55;2.17;;;;;;;19.89;32.61;99726.38;5111863;28;20055;-40
2024/01/05 09:50:17;;;;;;;7.13;2.28;;;;;;;20.31;33.26;99720.00;5112428;28;20026;-39
2024/01/05 09:52:43;;;;;;;10.32;2.55;;;;;;;19.54;33.11;99708.16;5112514;28;20032;-39
2024/01/05 09:55:08;;;;;;;11.15;2.83;;;;;;;19.23;33.46;99699.06;5112754;28;20020;-41
2024/01/05 09:57:36;;;;;;;9.18;3.10;;;;;;;20.00;32.58;99699.41;5111962;27;20031;-40
2024/01/05 10:00:04;;;;;;;12.35;3.08;;;;;;;19.27;33.09;99692.91;5111349;28;20494;-39
2024/01/05 10:02:39;;;;;;;9.10;3.40;;;;;;;18.86;33.94;99689.16;5111662;27;20088;-38
2024/01/05 10:05:05;;;;;;;12.00;4.50;;;;;;;19.63;33.15;99676.03;5111613;28;20054;-40
2024/01/05 10:07:31;;;;;;;12.93;5.18;;;;;;;19.90;32.32;99684.81;5112105;28;20027;-35
2024/01/05 10:09:58;;;;;;;11.63;5.00;;;;;;;18.67;34.06;99670.66;5111595;28;20077;-44
2024/01/05 10:12:24;;;;;;;14.30;4.70;;;;;;;19.17;33.68;99665.88;5111411;28;20511;-38
2024/01/05 10:14:50;;;;;;;8.77;4.15;;;;;;;19.90;33.04;99665.91;5111231;28;20039;-38
2024/01/05 10:17:15;;;;;;;7.35;3.55;;;;;;;19.33;33.42;99666.78;5111807;28;20020;-39
2024/01/05 10:19:42;;;;;;;6.82;2.92;;;;;;;18.86;34.02;99649.53;5111452;28;20123;-39
2024/01/05 10:22:12;;;;;;;7.07;2.30;;;;;;;19.15;33.85;99649.13;5111292;28;20418;-41
2024/01/05 10:24:38;;;;;;;7.97;2.65;;;;;;;19.82;33.04;99650.25;5111431;28;20031;-42
2024/01/05 10:27:06;;;;;;;10.73;3.42;;;;;;;18.89;34.98;99634.72;5110948;28;20085;-40
2024/01/05 10:29:32;;;;;;;8.52;3.10;;;;;;;18.95;35.26;99628.28;5111251;28;20054;-39
2024/01/05 10:32:17;;;;;;;7.38;2.70;;;;;;;19.39;35.08;99635.22;5110791;27;20023;-40
2024/01/05 10:34:45;;;;;;;6.15;2.42;;;;;;;19.07;35.57;99625.38;5111242;28;20075;-41
2024/01/05 10:37:11;;;;;;;9.20;3.10;;;;;;;18.77;35.42;99629.47;5110938;28;20031;-39
2024/01/05 10:39:37;;;;;;;6.25;2.10;;;;;;;19.13;34.93;99624.31;5110685;28;20031;-40
2024/01/05 10:42:18;;;;;;;8.55;2.80;;;;;;;18.60;35.96;99626.16;5111134;28;20149;-37
2024/01/05 10:44:45;;;;;;;7.78;2.17;;;;;;;18.01;36.43;99619.78;5111936;28;20129;-39
2024/01/05 10:47:14;;;;;;;5.20;2.05;;;;;;;18.23;36.91;99625.06;5111269;28;20066;-40
2024/01/05 10:49:43;;;;;;;4.40;2.03;;;;;;;18.61;36.18;99623.19;5110905;28;20023;-40
2024/01/05 10:52:10;;;;;;;8.25;2.80;;;;;;;17.97;37.76;99619.47;5111416;28;20118;-39
2024/01/05 10:54:36;;;;;;;13.25;4.70;;;;;;;18.09;38.76;99613.91;5110697;28;20494;-39
2024/01/05 10:57:03;;;;;;;9.95;4.38;;;;;;;18.72;38.06;99614.09;5111247;28;20028;-42
2024/01/05 10:59:29;;;;;;;14.73;5.32;;;;;;;18.15;38.75;99612.09;5110456;28;20096;-41
2024/01/05 11:01:55;;;;;;;12.73;3.85;;;;;;;18.03;39.48;99614.09;5110710;28;20467;-37
2024/01/05 11:04:23;;;;;;;14.02;4.43;;;;;;;18.88;38.49;99615.03;5110102;28;20024;-40
2024/01/05 11:06:49;;;;;;;10.23;4.10;;;;;;;19.03;37.72;99611.59;5110579;28;20102;-41
2024/01/05 11:09:45;;;;;;;8.48;3.58;;;;;;;18.34;38.68;99601.72;5110126;28;20055;-43
2024/01/05 11:12:32;;;;;;;11.70;3.42;;;;;;;18.62;38.97;99605.97;5110320;28;20063;-40
2024/01/05 11:15:26;;;;;;;7.13;3.85;;;;;;;19.09;37.80;99610.53;5109891;28;20028;-39
2024/01/05 11:18:07;;;;;;;8.68;3.92;;;;;;;18.40;38.26;99610.66;5109742;28;20031;-41
2024/01/05 11:20:32;;;;;;;;;;;;;;;19.20;37.49;99611.41;5110118;28;20509;-40
2024/01/05 11:22:59;;;;;;;6.10;2.92;;;;;;;19.35;36.21;99607.97;5110358;28;19914;-41
2024/01/05 11:25:24;;;;;;;10.23;3.20;;;;;;;18.84;36.75;99605.84;5109402;28;20106;-40
2024/01/05 11:27:50;;;;;;;8.15;2.92;;;;;;;18.74;37.38;99605.75;5110110;28;20038;-42
2024/01/05 11:30:40;;;;;;;6.75;2.45;;;;;;;19.51;36.18;99614.22;5109746;28;20127;-39
2024/01/05 11:33:06;;;;;;;5.65;2.55;;;;;;;18.87;36.49;99607.22;5109735;28;20035;-40